Time;durP1;ratioP1;P1;durP2;ratioP2;P2;SDS_P1;SDS_P2;PMS_P1;PMS_P2;Temp;Humidity;BMP_temperature;BMP_pressure;BME280_temperature;BME280_humidity;BME280_pressure;Samples;Min_cycle;Max_cycle;Signal;HPM_P1;HPM_P2
2024/02/27 06:52:17;;;;;;;36.30;21.97;;;;;;;3.24;100.00;100776.94;4915168;29;20523;-90
2024/02/27 06:54:44;;;;;;;35.27;19.43;;;;;;;3.28;100.00;100786.53;4883440;29;20084;-93
2024/02/27 06:57:12;;;;;;;39.53;19.63;;;;;;;3.16;100.00;100795.13;4905958;29;20044;-92
2024/02/27 06:59:40;;;;;;;34.60;18.17;;;;;;;3.15;100.00;100792.50;5044563;23;20112;-91
2024/02/27 07:02:08;;;;;;;38.50;19.27;;;;;;;3.34;100.00;100797.06;4893126;29;20159;-91
2024/02/27 07:04:35;;;;;;;38.97;18.47;;;;;;;3.32;100.00;100797.03;4916946;29;20055;-91
2024/02/27 07:07:03;;;;;;;33.57;16.77;;;;;;;3.31;100.00;100807.47;4884818;29;20056;-90
2024/02/27 07:09:31;;;;;;;34.73;18.03;;;;;;;3.32;100.00;100817.94;4881606;29;20063;-90
2024/02/27 07:11:59;;;;;;;36.40;18.83;;;;;;;3.47;100.00;100818.97;4896573;29;20048;-90
2024/02/27 07:14:32;;;;;;;33.87;18.03;;;;;;;3.45;100.00;100807.59;4876864;29;20056;-91
2024/02/27 07:17:00;;;;;;;36.28;18.23;;;;;;;3.53;100.00;100806.88;4897233;29;20048;-88
2024/02/27 07:19:27;;;;;;;32.47;19.13;;;;;;;3.53;100.00;100800.72;4896756;29;20100;-90
2024/02/27 07:21:54;;;;;;;32.53;17.80;;;;;;;3.58;100.00;100810.38;4912252;29;20045;-90
2024/02/27 07:24:21;;;;;;;33.93;18.43;;;;;;;3.51;100.00;100812.91;4881201;29;20057;-89
2024/02/27 07:26:48;;;;;;;35.83;17.60;;;;;;;3.66;100.00;100818.31;4897703;29;20056;-90
2024/02/27 07:29:15;;;;;;;33.53;18.10;;;;;;;3.61;100.00;100804.31;4880897;29;20058;-91
2024/02/27 07:31:44;;;;;;;35.00;21.23;;;;;;;3.63;100.00;100813.06;4897824;29;20503;-91
2024/02/27 07:34:14;;;;;;;34.97;18.10;;;;;;;3.71;100.00;100816.63;4895862;29;20056;-91
2024/02/27 07:36:42;;;;;;;33.63;17.53;;;;;;;3.73;100.00;100819.25;4897063;29;20591;-90
2024/02/27 07:39:10;;;;;;;32.07;17.60;;;;;;;3.73;100.00;100820.13;4881480;29;20055;-90
2024/02/27 07:41:38;;;;;;;37.00;18.30;;;;;;;3.84;100.00;100828.06;4912447;29;20078;-91
2024/02/27 07:44:06;;;;;;;30.67;16.70;;;;;;;3.80;100.00;100839.34;4884053;29;20044;-90
2024/02/27 07:46:34;;;;;;;37.37;19.13;;;;;;;3.67;100.00;100846.19;4893397;29;20090;-89
2024/02/27 07:49:01;;;;;;;31.33;17.90;;;;;;;3.69;100.00;100844.44;4911894;29;20055;-89
2024/02/27 07:51:30;;;;;;;30.67;17.20;;;;;;;3.84;100.00;100831.53;4912013;29;20052;-90
2024/02/27 07:53:57;;;;;;;31.17;17.23;;;;;;;3.82;100.00;100838.50;4896114;29;20052;-90
2024/02/27 07:56:27;;;;;;;35.37;17.10;;;;;;;3.67;100.00;100830.50;4895708;29;20135;-90
2024/02/27 07:58:55;;;;;;;33.13;17.63;;;;;;;3.58;100.00;100826.06;4875905;29;20044;-90
2024/02/27 08:01:24;;;;;;;33.17;17.63;;;;;;;3.52;100.00;100822.50;4900840;29;20068;-89
2024/02/27 08:03:52;;;;;;;31.03;16.67;;;;;;;3.65;100.00;100833.09;4895890;29;20473;-89
2024/02/27 08:06:21;;;;;;;34.80;17.10;;;;;;;3.63;100.00;100832.22;4880793;29;20100;-90
2024/02/27 08:08:49;;;;;;;30.70;17.23;;;;;;;3.67;100.00;100840.94;4897636;29;20053;-91
2024/02/27 08:11:16;;;;;;;29.33;16.50;;;;;;;3.78;100.00;100849.75;4882844;29;20389;-90
2024/02/27 08:13:43;;;;;;;31.80;16.93;;;;;;;3.70;100.00;100856.69;4882077;29;20049;-89
2024/02/27 08:16:11;;;;;;;27.70;15.60;;;;;;;3.80;100.00;100853.28;4885923;29;20505;-90
2024/02/27 08:18:38;;;;;;;27.57;14.63;;;;;;;3.77;100.00;100849.75;4852048;29;20572;-91
2024/02/27 08:21:05;;;;;;;32.30;16.10;;;;;;;3.86;100.00;100855.94;4876826;29;20060;-90
2024/02/27 08:23:33;;;;;;;30.10;15.37;;;;;;;4.00;100.00;100865.66;4861870;29;20344;-90
2024/02/27 08:26:01;;;;;;;30.40;15.67;;;;;;;3.92;100.00;100853.41;4892753;29;20143;-90
2024/02/27 08:28:29;;;;;;;28.77;15.73;;;;;;;3.93;100.00;100863.00;4848434;29;20056;-90
2024/02/27 08:30:56;;;;;;;30.87;15.50;;;;;;;3.81;100.00;100869.84;4877417;29;20045;-90
2024/02/27 08:33:23;;;;;;;28.80;15.37;;;;;;;3.89;100.00;100865.56;4877389;29;20065;-90
2024/02/27 08:35:53;;;;;;;28.53;15.20;;;;;;;3.88;100.00;100872.53;4861771;29;20391;-90
2024/02/27 08:38:21;;;;;;;24.70;14.27;;;;;;;4.01;100.00;100872.66;4861477;29;20576;-89
2024/02/27 08:40:48;;;;;;;26.13;14.27;;;;;;;4.15;100.00;100881.50;4877182;29;20144;-89
2024/02/27 08:43:15;;;;;;;25.17;14.27;;;;;;;4.18;100.00;100879.78;4876739;29;20088;-91
2024/02/27 08:45:43;;;;;;;24.87;13.97;;;;;;;4.21;100.00;100895.53;4911133;29;20033;-90
2024/02/27 08:48:10;;;;;;;23.90;13.03;;;;;;;4.15;100.00;100885.00;4895791;29;20075;-90
2024/02/27 08:50:38;;;;;;;23.23;13.30;;;;;;;4.16;100.00;100889.34;4895315;29;20049;-90
2024/02/27 08:53:05;;;;;;;25.63;13.50;;;;;;;4.18;100.00;100892.84;4910899;29;20049;-90
2024/02/27 08:55:32;;;;;;;22.40;13.17;;;;;;;4.26;100.00;100889.44;4880245;29;20464;-90
2024/02/27 08:57:59;;;;;;;23.87;13.10;;;;;;;4.23;100.00;100887.69;4895726;29;20076;-89
2024/02/27 09:00:26;;;;;;;24.87;14.47;;;;;;;4.16;100.00;100878.91;4886809;29;20077;-91
2024/02/27 09:02:53;;;;;;;26.57;14.00;;;;;;;4.27;100.00;100883.34;4894674;29;20044;-90
2024/02/27 09:05:21;;;;;;;25.50;12.73;;;;;;;4.08;100.00;100883.19;4894681;29;20044;-90
2024/02/27 09:07:48;;;;;;;24.30;13.87;;;;;;;4.17;100.00;100880.66;4894790;29;20107;-90
2024/02/27 09:10:15;;;;;;;23.30;13.33;;;;;;;4.24;100.00;100882.47;4895001;29;20400;-90
2024/02/27 09:12:42;;;;;;;19.63;12.03;;;;;;;4.15;100.00;100882.38;4894521;29;20104;-90
2024/02/27 09:15:10;;;;;;;22.40;11.40;;;;;;;4.22;100.00;100872.84;4884219;29;20049;-91
2024/02/27 09:17:38;;;;;;;20.30;11.27;;;;;;;4.29;100.00;100873.75;4876163;29;20041;-90
2024/02/27 09:20:06;;;;;;;17.87;11.00;;;;;;;4.33;100.00;100873.81;4876665;29;20052;-90
2024/02/27 09:22:34;;;;;;;20.90;11.27;;;;;;;4.29;100.00;100884.22;4891494;29;20261;-90
2024/02/27 09:25:01;;;;;;;18.03;10.73;;;;;;;4.22;100.00;100888.56;4876081;29;20155;-90
2024/02/27 09:27:31;;;;;;;20.13;11.67;;;;;;;4.31;100.00;100883.41;4876796;29;20103;-90
2024/02/27 09:29:58;;;;;;;16.80;10.47;;;;;;;4.25;100.00;100885.94;4878002;29;20053;-91
2024/02/27 09:32:25;;;;;;;20.97;11.70;;;;;;;4.23;100.00;100887.69;4866542;29;20051;-90
2024/02/27 09:34:53;;;;;;;20.00;11.17;;;;;;;4.33;100.00;100886.03;4878661;29;20457;-90
2024/02/27 09:37:22;;;;;;;20.63;11.07;;;;;;;4.30;100.00;100884.25;4891141;29;20128;-90
2024/02/27 09:39:49;;;;;;;18.37;10.97;;;;;;;4.42;100.00;100886.97;4875982;29;20401;-90
2024/02/27 09:42:25;;;;;;;19.27;10.70;;;;;;;4.38;100.00;100895.66;4878426;29;20056;-90
2024/02/27 09:45:06;;;;;;;18.70;12.07;;;;;;;4.34;100.00;100893.00;4887100;29;20416;-89
2024/02/27 09:47:37;;;;;;;20.20;11.30;;;;;;;4.37;100.00;100899.16;4882736;29;20056;-90
2024/02/27 09:50:07;;;;;;;19.63;11.07;;;;;;;4.42;100.00;100907.03;4897667;29;20055;-90
2024/02/27 09:52:35;;;;;;;18.90;10.97;;;;;;;4.32;100.00;100903.47;4897719;29;20048;-91
2024/02/27 09:55:03;;;;;;;18.57;10.33;;;;;;;4.34;100.00;100899.09;4897525;29;20115;-91
2024/02/27 09:57:30;;;;;;;19.23;10.60;;;;;;;4.38;100.00;100905.25;4881619;29;20067;-90
2024/02/27 09:59:58;;;;;;;20.97;11.33;;;;;;;4.42;100.00;100907.91;4864103;29;20052;-90
2024/02/27 10:02:25;;;;;;;22.13;12.03;;;;;;;4.39;100.00;100907.88;4896596;29;20105;-90
2024/02/27 10:04:53;;;;;;;19.03;11.50;;;;;;;4.46;100.00;100909.69;4875811;29;20056;-90
2024/02/27 10:07:21;;;;;;;19.47;11.47;;;;;;;4.50;100.00;100913.19;4875747;29;20053;-90
2024/02/27 10:09:48;;;;;;;16.80;10.07;;;;;;;4.37;100.00;100914.84;4875813;29;20070;-90
2024/02/27 10:12:17;;;;;;;18.00;10.80;;;;;;;4.50;100.00;100916.69;4875658;29;20052;-91
2024/02/27 10:14:45;;;;;;;18.77;11.57;;;;;;;4.63;100.00;100924.66;4875214;29;20101;-90
2024/02/27 10:17:12;;;;;;;18.97;10.47;;;;;;;4.62;100.00;100928.09;4875294;29;20053;-91
2024/02/27 10:19:39;;;;;;;19.40;10.40;;;;;;;4.67;100.00;100926.41;4890850;29;20540;-91
2024/02/27 10:22:07;;;;;;;18.93;11.27;;;;;;;4.73;100.00;100924.72;4847015;29;20067;-90
2024/02/27 10:24:34;;;;;;;17.23;10.03;;;;;;;4.77;100.00;100930.84;4875355;29;20048;-90
2024/02/27 10:27:04;;;;;;;18.50;9.27;;;;;;;4.79;100.00;100932.63;4875565;29;20065;-91
2024/02/27 10:29:31;;;;;;;20.60;10.90;;;;;;;4.94;100.00;100928.34;4883835;29;20109;-89
2024/02/27 10:31:59;;;;;;;17.30;11.50;;;;;;;4.77;100.00;100928.22;4903823;29;20051;-91
2024/02/27 10:34:27;;;;;;;16.10;10.17;;;;;;;4.77;100.00;100943.94;4897053;29;20454;-90
2024/02/27 10:37:04;;;;;;;18.10;11.37;;;;;;;4.63;100.00;100935.13;4900464;29;20398;-91
2024/02/27 10:39:34;;;;;;;17.53;10.20;;;;;;;4.83;100.00;100924.78;4913764;29;20044;-91
2024/02/27 10:42:01;;;;;;;18.03;10.27;;;;;;;4.83;100.00;100930.03;4912500;29;20111;-90
2024/02/27 10:44:29;;;;;;;19.13;10.07;;;;;;;4.94;100.00;100923.13;4878255;29;20503;-90
2024/02/27 10:46:59;;;;;;;17.67;10.07;;;;;;;5.01;100.00;100919.66;4878394;29;20049;-90
2024/02/27 10:49:26;;;;;;;18.80;9.80;;;;;;;5.00;100.00;100916.19;4861365;29;20144;-91
2024/02/27 10:51:54;;;;;;;18.70;9.47;;;;;;;5.16;100.00;100913.66;4876320;29;20041;-90
2024/02/27 10:54:23;;;;;;;16.87;9.90;;;;;;;5.15;100.00;100922.38;4861358;29;20045;-90
2024/02/27 10:56:50;;;;;;;16.90;9.67;;;;;;;5.23;100.00;100918.06;4877019;29;20048;-90
2024/02/27 10:59:18;;;;;;;20.33;11.07;;;;;;;5.01;100.00;100927.53;4884319;29;20140;-91
2024/02/27 11:01:46;;;;;;;22.77;13.47;;;;;;;5.15;100.00;100922.38;4899548;29;20049;-90
2024/02/27 11:04:25;;;;;;;19.20;10.63;;;;;;;5.05;100.00;100918.84;4876236;29;20076;-90
2024/02/27 11:06:54;;;;;;;15.63;9.83;;;;;;;5.04;100.00;100919.69;4875941;29;20255;-90
2024/02/27 11:09:25;;;;;;;24.50;13.17;;;;;;;5.17;100.00;100910.16;4861195;29;20049;-90
2024/02/27 11:12:07;;;;;;;104.47;50.57;;;;;;;5.29;100.00;100908.47;4879904;29;20049;-90
2024/02/27 11:14:38;;;;;;;20.67;11.43;;;;;;;5.30;100.00;100919.84;4892832;29;20064;-90
2024/02/27 11:17:12;;;;;;;25.93;17.50;;;;;;;5.32;100.00;100912.88;4881564;29;20572;-89
2024/02/27 11:19:47;;;;;;;18.90;10.68;;;;;;;5.16;100.00;100921.50;4864608;29;20413;-89
2024/02/27 11:22:22;;;;;;;18.20;9.90;;;;;;;5.27;100.00;100917.19;4879221;29;20045;-88
2024/02/27 11:24:49;;;;;;;19.57;13.63;;;;;;;5.34;100.00;100913.75;4879004;29;20044;-90
2024/02/27 11:27:19;;;;;;;17.47;9.67;;;;;;;5.42;100.00;100913.78;4878802;29;20052;-89
2024/02/27 11:29:51;;;;;;;17.43;10.27;;;;;;;5.43;100.00;100915.53;4875001;29;20143;-90
2024/02/27 11:32:22;;;;;;;17.53;11.00;;;;;;;5.35;100.00;100923.34;4898389;29;20072;-90
2024/02/27 11:34:49;;;;;;;18.13;10.03;;;;;;;5.44;100.00;100933.88;4882832;29;20104;-90
2024/02/27 11:37:19;;;;;;;18.47;11.03;;;;;;;5.23;100.00;100933.78;4897627;29;20684;-89
2024/02/27 11:39:47;;;;;;;18.03;10.50;;;;;;;5.30;100.00;100927.72;4899515;29;20055;-89
2024/02/27 11:42:43;;;;;;;20.07;12.77;;;;;;;5.43;100.00;100926.88;4898798;29;20044;-89
2024/02/27 11:45:16;;;;;;;18.80;10.77;;;;;;;5.40;100.00;100937.38;4881668;29;20048;-89
2024/02/27 11:47:51;;;;;;;17.67;10.43;;;;;;;5.42;100.00;100929.50;4898210;29;20052;-89
2024/02/27 11:50:34;;;;;;;17.63;10.67;;;;;;;5.43;100.00;100934.75;4883383;29;20416;-90
2024/02/27 11:53:17;;;;;;;17.07;11.63;;;;;;;5.20;100.00;100925.88;4913337;29;20206;-89
2024/02/27 11:55:45;;;;;;;21.30;11.53;;;;;;;5.41;100.00;100930.38;4899347;29;20052;-89
2024/02/27 11:58:14;;;;;;;23.27;15.27;;;;;;;5.36;100.00;100925.09;4882658;29;20394;-89
2024/02/27 12:00:48;;;;;;;20.93;11.47;;;;;;;5.44;100.00;100912.91;4886828;29;20048;-89
2024/02/27 12:03:15;;;;;;;20.73;11.80;;;;;;;5.47;100.00;100920.81;4902739;29;20040;-90
2024/02/27 12:05:54;;;;;;;18.90;10.63;;;;;;;5.51;100.00;100913.81;4898656;29;20052;-90
2024/02/27 12:08:21;;;;;;;20.00;10.30;;;;;;;5.51;100.00;100919.06;4897858;29;20432;-89
2024/02/27 12:10:48;;;;;;;20.27;10.57;;;;;;;5.32;100.00;100925.97;4867319;29;20081;-90
2024/02/27 12:13:16;;;;;;;18.97;10.47;;;;;;;5.34;100.00;100927.72;4894929;29;20433;-90
2024/02/27 12:15:44;;;;;;;18.83;10.57;;;;;;;5.43;100.00;100912.91;4892885;29;20049;-89
2024/02/27 12:18:12;;;;;;;17.73;11.03;;;;;;;5.37;100.00;100919.00;4909457;29;20044;-88
2024/02/27 12:21:03;;;;;;;21.33;11.70;;;;;;;5.37;100.00;100911.13;4902759;29;20146;-91
2024/02/27 12:23:31;;;;;;;21.73;11.97;;;;;;;5.35;100.00;100913.75;4896843;29;20134;-92
2024/02/27 12:26:00;;;;;;;21.63;11.87;;;;;;;5.27;100.00;100925.06;4898441;29;20104;-90
2024/02/27 12:28:28;;;;;;;19.23;10.83;;;;;;;5.20;100.00;100918.03;4896163;29;20449;-91
2024/02/27 12:30:58;;;;;;;19.53;11.03;;;;;;;5.21;100.00;100917.16;4905176;29;20101;-90
2024/02/27 12:33:26;;;;;;;18.80;11.40;;;;;;;4.95;100.00;100923.13;4882122;29;20416;-89
2024/02/27 12:35:54;;;;;;;22.73;10.80;;;;;;;5.03;100.00;100915.31;4896857;29;20052;-89
2024/02/27 12:38:21;;;;;;;19.40;11.40;;;;;;;4.98;100.00;100917.03;4881215;29;20519;-90
2024/02/27 12:40:48;;;;;;;20.60;11.07;;;;;;;5.11;100.00;100917.97;4913442;29;20048;-89
2024/02/27 12:43:18;;;;;;;20.83;11.53;;;;;;;5.14;100.00;100911.03;4892939;29;20053;-90
2024/02/27 12:45:50;;;;;;;22.17;11.90;;;;;;;5.07;100.00;100907.50;4899451;29;20074;-90
2024/02/27 12:48:18;;;;;;;21.67;11.40;;;;;;;5.09;100.00;100913.63;4912594;29;20511;-90
2024/02/27 12:50:46;;;;;;;18.27;10.40;;;;;;;5.19;100.00;100913.66;4897006;29;20056;-90
2024/02/27 12:53:14;;;;;;;21.93;11.13;;;;;;;4.91;100.00;100921.34;4896314;29;20047;-89
2024/02/27 12:55:41;;;;;;;21.20;11.77;;;;;;;5.03;100.00;100918.81;4896627;29;20603;-89
2024/02/27 13:02:55;;;;;;;22.00;10.80;;;;;;;5.09;100.00;100918.84;4859714;29;20140;-88
2024/02/27 13:07:02;;;;;;;17.30;9.57;;;;;;;5.00;100.00;100923.16;4860054;29;20528;-88
2024/02/27 13:09:54;;;;;;;22.80;10.03;;;;;;;5.03;100.00;100924.03;4843829;29;20501;-89
2024/02/27 13:12:24;;;;;;;19.50;11.13;;;;;;;4.97;100.00;100938.88;4859166;29;20132;-88
2024/02/27 13:14:51;;;;;;;21.10;11.23;;;;;;;4.81;100.00;100935.25;4844699;29;20390;-90
2024/02/27 13:17:18;;;;;;;20.40;12.17;;;;;;;4.80;100.00;100943.97;4844234;29;20056;-88
2024/02/27 13:19:46;;;;;;;21.90;11.83;;;;;;;4.87;100.00;100943.13;4859518;29;20068;-88
2024/02/27 13:22:13;;;;;;;22.10;11.30;;;;;;;4.70;100.00;100937.75;4844316;29;20141;-88
2024/02/27 13:24:40;;;;;;;22.80;11.60;;;;;;;4.86;100.00;100930.91;4844524;29;20149;-87
2024/02/27 13:27:08;;;;;;;20.90;11.10;;;;;;;4.95;100.00;100927.47;4830103;29;20056;-88
2024/02/27 13:29:35;;;;;;;21.03;13.00;;;;;;;4.97;100.00;100923.16;4830199;29;20049;-87
2024/02/27 13:32:03;;;;;;;23.07;12.73;;;;;;;4.99;100.00;100927.53;4843813;29;20374;-89
2024/02/27 13:34:30;;;;;;;23.67;11.73;;;;;;;5.03;100.00;100923.16;4829366;29;20057;-89
2024/02/27 13:36:57;;;;;;;22.67;13.20;;;;;;;5.10;100.00;100924.97;4858789;29;20045;-88
2024/02/27 13:39:25;;;;;;;21.97;12.07;;;;;;;5.04;100.00;100923.22;4844263;29;20413;-90
2024/02/27 13:41:52;;;;;;;21.40;11.90;;;;;;;4.96;100.00;100924.00;4828933;29;20132;-88
2024/02/27 13:44:19;;;;;;;23.47;11.57;;;;;;;4.88;100.00;100913.50;4843605;29;20458;-89
2024/02/27 13:46:46;;;;;;;22.03;12.30;;;;;;;4.92;100.00;100923.09;4828881;29;20109;-87
2024/02/27 13:49:18;;;;;;;22.73;11.80;;;;;;;4.84;100.00;100919.56;4858118;29;20083;-88
2024/02/27 13:51:46;;;;;;;23.27;12.77;;;;;;;4.95;100.00;100928.34;4858116;29;20049;-88
2024/02/27 13:54:13;;;;;;;22.60;11.73;;;;;;;4.99;100.00;100926.66;4858297;29;20543;-87
2024/02/27 13:56:40;;;;;;;21.03;12.10;;;;;;;4.97;100.00;100924.03;4842970;29;20081;-88
2024/02/27 13:59:08;;;;;;;28.17;13.73;;;;;;;5.02;100.00;100931.91;4874314;29;20069;-90
2024/02/27 14:01:35;;;;;;;24.50;12.50;;;;;;;5.08;100.00;100927.56;4846281;29;20461;-88
2024/02/27 14:04:02;;;;;;;24.73;12.40;;;;;;;5.08;100.00;100930.19;4843310;29;20124;-89
2024/02/27 14:06:29;;;;;;;25.40;13.17;;;;;;;5.15;100.00;100927.63;4841976;29;20076;-87
2024/02/27 14:08:57;;;;;;;24.03;12.13;;;;;;;5.10;100.00;100924.97;4826879;29;20593;-87
2024/02/27 14:11:24;;;;;;;25.50;13.00;;;;;;;5.06;100.00;100925.81;4842395;29;20060;-87
2024/02/27 14:13:51;;;;;;;27.20;14.23;;;;;;;5.02;100.00;100930.16;4842992;29;20501;-89
2024/02/27 14:16:31;;;;;;;24.40;12.53;;;;;;;5.01;100.00;100925.78;4843415;29;20072;-87
2024/02/27 14:18:59;;;;;;;20.97;12.20;;;;;;;5.07;100.00;100930.19;4827890;29;20050;-88
2024/02/27 14:21:27;;;;;;;23.50;12.20;;;;;;;4.99;100.00;100924.03;4841737;29;20046;-88
2024/02/27 14:23:55;;;;;;;27.63;13.73;;;;;;;4.93;100.00;100922.25;4827096;29;20089;-89
2024/02/27 14:26:22;;;;;;;27.17;13.60;;;;;;;5.01;100.00;100923.16;4856736;29;20106;-88
2024/02/27 14:28:49;;;;;;;21.80;11.60;;;;;;;4.93;100.00;100922.25;4857681;29;20458;-88
2024/02/27 14:31:16;;;;;;;26.90;13.17;;;;;;;4.97;100.00;100925.78;4836239;29;20144;-87
2024/02/27 14:33:43;;;;;;;23.53;12.80;;;;;;;4.93;100.00;100919.63;4877210;29;20041;-88
2024/02/27 14:36:11;;;;;;;23.40;12.23;;;;;;;4.89;100.00;100917.00;4844965;29;20517;-88
2024/02/27 14:38:41;;;;;;;24.17;12.50;;;;;;;4.83;100.00;100924.78;4860959;29;20119;-90
2024/02/27 14:41:08;;;;;;;24.00;11.90;;;;;;;4.75;100.00;100925.59;4869543;29;20049;-89
2024/02/27 14:43:36;;;;;;;23.40;12.47;;;;;;;4.80;100.00;100929.16;4859511;29;20128;-89
2024/02/27 14:46:04;;;;;;;23.63;11.70;;;;;;;4.78;100.00;100929.97;4866097;29;20049;-89
2024/02/27 14:48:31;;;;;;;21.00;11.80;;;;;;;4.91;100.00;100931.84;4863552;29;20072;-88
2024/02/27 14:51:00;;;;;;;22.20;12.63;;;;;;;4.78;100.00;100919.50;4879250;29;20068;-88
2024/02/27 14:53:27;;;;;;;24.67;12.50;;;;;;;4.90;100.00;100927.47;4848106;29;20496;-89
2024/02/27 14:55:54;;;;;;;22.67;12.07;;;;;;;4.78;100.00;100925.63;4879347;29;20056;-88
2024/02/27 14:58:22;;;;;;;22.70;12.77;;;;;;;4.83;100.00;100924.78;4911457;29;20060;-91
2024/02/27 15:00:49;;;;;;;25.87;12.23;;;;;;;4.86;100.00;100919.56;4902738;29;20041;-91
2024/02/27 15:03:16;;;;;;;21.10;12.13;;;;;;;4.75;100.00;100917.75;4879604;29;20041;-88
2024/02/27 15:05:44;;;;;;;22.07;11.27;;;;;;;4.75;100.00;100916.88;4895866;29;20044;-89
2024/02/27 15:08:11;;;;;;;20.77;11.93;;;;;;;4.90;100.00;100921.34;4880642;29;20056;-89
2024/02/27 15:10:38;;;;;;;22.27;12.30;;;;;;;5.01;100.00;100919.66;4865051;29;20109;-91
2024/02/27 15:13:05;;;;;;;25.73;13.13;;;;;;;4.81;100.00;100943.09;4865532;29;20053;-87
2024/02/27 15:15:32;;;;;;;18.77;11.37;;;;;;;4.79;100.00;100939.56;4849732;29;20501;-90
2024/02/27 15:18:00;;;;;;;20.17;11.80;;;;;;;4.92;100.00;100930.09;4895848;29;20041;-88
2024/02/27 15:20:27;;;;;;;25.80;12.63;;;;;;;4.93;100.00;100943.19;4865301;29;20053;-89
2024/02/27 15:22:54;;;;;;;20.30;11.90;;;;;;;4.91;100.00;100939.69;4860935;29;20046;-88
2024/02/27 15:25:21;;;;;;;25.07;13.23;;;;;;;4.80;100.00;100938.75;4846613;29;20057;-89
2024/02/27 15:27:50;;;;;;;23.67;13.80;;;;;;;4.89;100.00;100933.56;4866084;29;20045;-91
2024/02/27 15:30:31;;;;;;;24.37;13.60;;;;;;;4.90;100.00;100937.06;4862387;29;20053;-89
2024/02/27 15:32:58;;;;;;;23.77;12.73;;;;;;;4.85;100.00;100938.75;4845788;29;20052;-89
2024/02/27 15:35:25;;;;;;;25.73;12.37;;;;;;;4.69;100.00;100946.50;4862163;29;20081;-89
2024/02/27 15:37:53;;;;;;;23.33;12.73;;;;;;;4.59;100.00;100951.63;4831615;29;20045;-88
2024/02/27 15:40:20;;;;;;;25.07;13.27;;;;;;;4.74;100.00;100942.19;4854157;29;20501;-89
2024/02/27 15:42:48;;;;;;;24.07;13.23;;;;;;;4.74;100.00;100941.31;4871555;29;20574;-87
2024/02/27 15:45:15;;;;;;;23.33;13.47;;;;;;;4.69;100.00;100956.97;4861314;29;20482;-88
2024/02/27 15:47:42;;;;;;;23.27;13.03;;;;;;;4.74;100.00;100944.78;4861218;29;20045;-91
2024/02/27 15:50:10;;;;;;;21.57;11.67;;;;;;;4.62;100.00;100951.66;4847244;29;20148;-88
2024/02/27 15:52:37;;;;;;;22.60;11.40;;;;;;;4.66;100.00;100956.94;4830412;29;20053;-88
2024/02/27 15:55:04;;;;;;;23.93;12.40;;;;;;;4.66;100.00;100954.31;4830362;29;20084;-88
2024/02/27 15:57:53;;;;;;;23.93;13.93;;;;;;;4.78;100.00;100949.16;4830684;29;20088;-91
2024/02/27 16:00:42;;;;;;;23.30;11.93;;;;;;;4.76;100.00;100952.66;4847958;29;20053;-92
2024/02/27 16:08:37;;;;;;;22.03;12.93;;;;;;;4.66;100.00;100956.94;4854838;29;20417;-92
2024/02/27 16:11:48;;;;;;;21.07;11.93;;;;;;;4.80;100.00;100951.81;4861334;29;20124;-92
2024/02/27 16:15:37;;;;;;;22.67;11.27;;;;;;;4.77;100.00;100957.91;4852890;29;20041;-92
2024/02/27 16:23:42;;;;;;;26.03;13.07;;;;;;;4.62;100.00;100957.75;4826783;29;20060;-92
2024/02/27 16:39:44;;;;;;;19.30;10.73;;;;;;;4.43;100.00;100975.03;4862627;29;20072;-92
2024/02/27 16:42:22;;;;;;;18.37;10.30;;;;;;;4.48;100.00;100973.38;4846576;29;20133;-92
2024/02/27 16:45:16;;;;;;;20.60;11.33;;;;;;;4.30;100.00;100964.47;4850183;29;20129;-92
2024/02/27 16:48:10;;;;;;;17.03;9.90;;;;;;;4.32;100.00;100967.97;4863596;29;20046;-92
